sensor_id;sensor_type;location;lat;lon;timestamp;P1;durP1;ratioP1;P2;durP2;ratioP2
48613;SDS011;34408;51.426;5.444;2023-05-06T00:02:02;4.40;;;2.60;;
48613;SDS011;34408;51.426;5.444;2023-05-06T00:04:33;5.18;;;3.47;;
48613;SDS011;34408;51.426;5.444;2023-05-06T00:07:01;5.32;;;3.53;;
48613;SDS011;34408;51.426;5.444;2023-05-06T00:09:30;6.13;;;3.58;;
48613;SDS011;34408;51.426;5.444;2023-05-06T00:11:58;5.38;;;3.20;;
48613;SDS011;34408;51.426;5.444;2023-05-06T00:14:25;4.63;;;3.08;;
48613;SDS011;34408;51.426;5.444;2023-05-06T00:16:53;4.57;;;3.30;;
48613;SDS011;34408;51.426;5.444;2023-05-06T00:19:21;4.38;;;3.40;;
48613;SDS011;34408;51.426;5.444;2023-05-06T00:21:49;5.05;;;3.42;;
48613;SDS011;34408;51.426;5.444;2023-05-06T00:24:17;7.25;;;3.42;;
48613;SDS011;34408;51.426;5.444;2023-05-06T00:26:46;5.38;;;3.65;;
48613;SDS011;34408;51.426;5.444;2023-05-06T00:29:13;4.75;;;3.78;;
48613;SDS011;34408;51.426;5.444;2023-05-06T00:31:41;4.60;;;3.47;;
48613;SDS011;34408;51.426;5.444;2023-05-06T00:34:10;5.18;;;3.33;;
48613;SDS011;34408;51.426;5.444;2023-05-06T00:36:38;5.15;;;3.60;;
48613;SDS011;34408;51.426;5.444;2023-05-06T00:39:08;6.50;;;3.60;;
48613;SDS011;34408;51.426;5.444;2023-05-06T00:41:36;5.85;;;3.80;;
48613;SDS011;34408;51.426;5.444;2023-05-06T00:44:05;5.25;;;3.58;;
48613;SDS011;34408;51.426;5.444;2023-05-06T00:46:32;6.18;;;3.35;;
48613;SDS011;34408;51.426;5.444;2023-05-06T00:49:00;4.03;;;2.97;;
48613;SDS011;34408;51.426;5.444;2023-05-06T00:51:28;5.68;;;3.35;;
48613;SDS011;34408;51.426;5.444;2023-05-06T00:53:57;5.35;;;3.38;;
48613;SDS011;34408;51.426;5.444;2023-05-06T00:56:25;4.63;;;3.30;;
48613;SDS011;34408;51.426;5.444;2023-05-06T00:58:53;7.45;;;3.60;;
48613;SDS011;34408;51.426;5.444;2023-05-06T01:01:22;4.93;;;3.60;;
48613;SDS011;34408;51.426;5.444;2023-05-06T01:03:50;9.73;;;4.28;;
48613;SDS011;34408;51.426;5.444;2023-05-06T01:06:23;7.03;;;3.92;;
48613;SDS011;34408;51.426;5.444;2023-05-06T01:08:56;5.45;;;3.78;;
48613;SDS011;34408;51.426;5.444;2023-05-06T01:11:32;6.10;;;3.75;;
48613;SDS011;34408;51.426;5.444;2023-05-06T01:14:09;5.65;;;3.55;;
48613;SDS011;34408;51.426;5.444;2023-05-06T01:19:16;4.70;;;3.83;;
48613;SDS011;34408;51.426;5.444;2023-05-06T01:22:00;5.35;;;3.15;;
48613;SDS011;34408;51.426;5.444;2023-05-06T01:24:36;5.28;;;3.58;;
48613;SDS011;34408;51.426;5.444;2023-05-06T01:27:04;5.05;;;3.38;;
48613;SDS011;34408;51.426;5.444;2023-05-06T01:29:33;5.57;;;3.45;;
48613;SDS011;34408;51.426;5.444;2023-05-06T01:32:06;6.65;;;3.03;;
48613;SDS011;34408;51.426;5.444;2023-05-06T01:34:48;4.15;;;3.35;;
48613;SDS011;34408;51.426;5.444;2023-05-06T01:37:22;4.82;;;3.85;;
48613;SDS011;34408;51.426;5.444;2023-05-06T01:39:58;6.18;;;3.90;;
48613;SDS011;34408;51.426;5.444;2023-05-06T01:42:27;4.68;;;3.20;;
48613;SDS011;34408;51.426;5.444;2023-05-06T01:44:56;5.40;;;3.33;;
48613;SDS011;34408;51.426;5.444;2023-05-06T01:47:28;4.15;;;3.22;;
48613;SDS011;34408;51.426;5.444;2023-05-06T01:49:56;8.30;;;3.15;;
48613;SDS011;34408;51.426;5.444;2023-05-06T01:52:25;6.03;;;3.38;;
48613;SDS011;34408;51.426;5.444;2023-05-06T01:54:53;6.95;;;3.40;;
48613;SDS011;34408;51.426;5.444;2023-05-06T01:57:22;5.93;;;3.72;;
48613;SDS011;34408;51.426;5.444;2023-05-06T01:59:50;4.57;;;2.95;;
48613;SDS011;34408;51.426;5.444;2023-05-06T02:02:18;5.40;;;3.25;;
48613;SDS011;34408;51.426;5.444;2023-05-06T02:04:45;5.35;;;3.88;;
48613;SDS011;34408;51.426;5.444;2023-05-06T02:07:13;5.10;;;3.30;;
48613;SDS011;34408;51.426;5.444;2023-05-06T02:09:41;5.85;;;3.53;;
48613;SDS011;34408;51.426;5.444;2023-05-06T02:12:08;5.55;;;3.40;;
48613;SDS011;34408;51.426;5.444;2023-05-06T02:14:37;4.18;;;3.35;;
48613;SDS011;34408;51.426;5.444;2023-05-06T02:17:05;5.03;;;3.15;;
48613;SDS011;34408;51.426;5.444;2023-05-06T02:19:33;5.07;;;3.28;;
48613;SDS011;34408;51.426;5.444;2023-05-06T02:22:01;6.47;;;3.15;;
48613;SDS011;34408;51.426;5.444;2023-05-06T02:24:28;6.35;;;3.22;;
48613;SDS011;34408;51.426;5.444;2023-05-06T02:26:56;7.68;;;3.20;;
48613;SDS011;34408;51.426;5.444;2023-05-06T02:29:24;5.32;;;3.40;;
48613;SDS011;34408;51.426;5.444;2023-05-06T02:31:53;4.22;;;2.92;;
48613;SDS011;34408;51.426;5.444;2023-05-06T02:34:21;4.50;;;3.20;;
48613;SDS011;34408;51.426;5.444;2023-05-06T02:36:49;4.78;;;3.00;;
48613;SDS011;34408;51.426;5.444;2023-05-06T02:39:16;4.53;;;3.63;;
48613;SDS011;34408;51.426;5.444;2023-05-06T02:41:44;6.90;;;4.07;;
48613;SDS011;34408;51.426;5.444;2023-05-06T02:44:12;5.40;;;3.28;;
48613;SDS011;34408;51.426;5.444;2023-05-06T02:46:39;5.75;;;3.40;;
48613;SDS011;34408;51.426;5.444;2023-05-06T02:49:10;4.53;;;3.20;;
48613;SDS011;34408;51.426;5.444;2023-05-06T02:51:37;4.40;;;3.38;;
48613;SDS011;34408;51.426;5.444;2023-05-06T02:54:05;5.82;;;2.95;;
48613;SDS011;34408;51.426;5.444;2023-05-06T02:56:33;5.70;;;3.17;;
48613;SDS011;34408;51.426;5.444;2023-05-06T02:59:02;5.40;;;3.50;;
48613;SDS011;34408;51.426;5.444;2023-05-06T03:01:29;4.85;;;3.63;;
48613;SDS011;34408;51.426;5.444;2023-05-06T03:03:57;4.82;;;3.13;;
48613;SDS011;34408;51.426;5.444;2023-05-06T03:06:26;4.95;;;3.17;;
48613;SDS011;34408;51.426;5.444;2023-05-06T03:08:54;5.68;;;2.97;;
48613;SDS011;34408;51.426;5.444;2023-05-06T03:11:22;3.40;;;2.65;;
48613;SDS011;34408;51.426;5.444;2023-05-06T03:13:50;5.55;;;3.10;;
48613;SDS011;34408;51.426;5.444;2023-05-06T03:16:17;4.13;;;2.92;;
48613;SDS011;34408;51.426;5.444;2023-05-06T03:18:45;5.40;;;3.50;;
48613;SDS011;34408;51.426;5.444;2023-05-06T03:21:13;4.30;;;3.20;;
48613;SDS011;34408;51.426;5.444;2023-05-06T03:23:42;4.28;;;2.90;;
48613;SDS011;34408;51.426;5.444;2023-05-06T03:26:10;6.90;;;3.05;;
48613;SDS011;34408;51.426;5.444;2023-05-06T03:28:37;3.85;;;2.90;;
48613;SDS011;34408;51.426;5.444;2023-05-06T03:31:07;4.28;;;3.13;;
48613;SDS011;34408;51.426;5.444;2023-05-06T03:33:35;4.55;;;3.28;;
48613;SDS011;34408;51.426;5.444;2023-05-06T03:36:03;4.90;;;3.17;;
48613;SDS011;34408;51.426;5.444;2023-05-06T03:38:31;3.65;;;2.60;;
48613;SDS011;34408;51.426;5.444;2023-05-06T03:41:00;7.43;;;3.20;;
48613;SDS011;34408;51.426;5.444;2023-05-06T03:43:28;4.88;;;2.97;;
48613;SDS011;34408;51.426;5.444;2023-05-06T03:45:56;4.00;;;2.78;;
48613;SDS011;34408;51.426;5.444;2023-05-06T03:48:24;4.00;;;2.72;;
48613;SDS011;34408;51.426;5.444;2023-05-06T03:50:51;5.95;;;3.13;;
48613;SDS011;34408;51.426;5.444;2023-05-06T03:53:19;4.60;;;2.78;;
48613;SDS011;34408;51.426;5.444;2023-05-06T03:55:47;6.78;;;3.10;;
48613;SDS011;34408;51.426;5.444;2023-05-06T03:58:16;5.60;;;3.10;;
48613;SDS011;34408;51.426;5.444;2023-05-06T04:00:44;5.88;;;2.63;;
48613;SDS011;34408;51.426;5.444;2023-05-06T04:03:12;3.83;;;2.75;;
48613;SDS011;34408;51.426;5.444;2023-05-06T04:05:40;4.65;;;2.90;;
48613;SDS011;34408;51.426;5.444;2023-05-06T04:08:07;3.22;;;2.70;;
48613;SDS011;34408;51.426;5.444;2023-05-06T04:10:37;4.13;;;2.92;;
48613;SDS011;34408;51.426;5.444;2023-05-06T04:13:06;5.95;;;3.15;;
48613;SDS011;34408;51.426;5.444;2023-05-06T04:15:35;4.38;;;2.80;;
48613;SDS011;34408;51.426;5.444;2023-05-06T04:18:03;4.75;;;3.08;;
48613;SDS011;34408;51.426;5.444;2023-05-06T04:20:32;5.22;;;3.00;;
48613;SDS011;34408;51.426;5.444;2023-05-06T04:23:01;5.05;;;3.13;;
48613;SDS011;34408;51.426;5.444;2023-05-06T04:25:28;6.05;;;2.90;;
48613;SDS011;34408;51.426;5.444;2023-05-06T04:27:56;5.95;;;2.78;;
48613;SDS011;34408;51.426;5.444;2023-05-06T04:30:24;4.65;;;2.67;;
48613;SDS011;34408;51.426;5.444;2023-05-06T04:32:53;4.25;;;2.90;;
48613;SDS011;34408;51.426;5.444;2023-05-06T04:35:21;4.60;;;2.67;;
48613;SDS011;34408;51.426;5.444;2023-05-06T04:37:49;3.97;;;2.47;;
48613;SDS011;34408;51.426;5.444;2023-05-06T04:40:17;4.38;;;2.85;;
48613;SDS011;34408;51.426;5.444;2023-05-06T04:42:44;3.00;;;2.30;;
48613;SDS011;34408;51.426;5.444;2023-05-06T04:45:12;3.72;;;2.80;;
48613;SDS011;34408;51.426;5.444;2023-05-06T04:47:40;4.13;;;2.53;;
48613;SDS011;34408;51.426;5.444;2023-05-06T04:50:10;4.05;;;2.92;;
48613;SDS011;34408;51.426;5.444;2023-05-06T04:52:38;6.93;;;2.95;;
48613;SDS011;34408;51.426;5.444;2023-05-06T04:55:06;5.07;;;2.50;;
48613;SDS011;34408;51.426;5.444;2023-05-06T04:57:36;5.20;;;3.10;;
48613;SDS011;34408;51.426;5.444;2023-05-06T05:00:04;6.32;;;3.05;;
48613;SDS011;34408;51.426;5.444;2023-05-06T05:02:35;3.72;;;2.53;;
48613;SDS011;34408;51.426;5.444;2023-05-06T05:05:03;3.08;;;2.53;;
48613;SDS011;34408;51.426;5.444;2023-05-06T05:07:33;3.90;;;2.80;;
48613;SDS011;34408;51.426;5.444;2023-05-06T05:10:01;4.00;;;2.17;;
48613;SDS011;34408;51.426;5.444;2023-05-06T05:12:29;5.50;;;2.45;;
48613;SDS011;34408;51.426;5.444;2023-05-06T05:14:57;2.72;;;2.20;;
48613;SDS011;34408;51.426;5.444;2023-05-06T05:17:25;4.65;;;2.20;;
48613;SDS011;34408;51.426;5.444;2023-05-06T05:19:53;3.05;;;1.98;;
48613;SDS011;34408;51.426;5.444;2023-05-06T05:22:20;3.30;;;2.38;;
48613;SDS011;34408;51.426;5.444;2023-05-06T05:24:49;3.15;;;1.98;;
48613;SDS011;34408;51.426;5.444;2023-05-06T05:27:17;3.38;;;2.45;;
48613;SDS011;34408;51.426;5.444;2023-05-06T05:29:45;5.25;;;2.45;;
48613;SDS011;34408;51.426;5.444;2023-05-06T05:32:13;5.40;;;2.50;;
48613;SDS011;34408;51.426;5.444;2023-05-06T05:34:41;3.53;;;2.60;;
48613;SDS011;34408;51.426;5.444;2023-05-06T05:37:09;4.68;;;2.88;;
48613;SDS011;34408;51.426;5.444;2023-05-06T05:39:36;3.33;;;2.10;;
48613;SDS011;34408;51.426;5.444;2023-05-06T05:42:05;3.90;;;2.05;;
48613;SDS011;34408;51.426;5.444;2023-05-06T05:44:33;3.15;;;2.20;;
48613;SDS011;34408;51.426;5.444;2023-05-06T05:47:01;4.75;;;2.40;;
48613;SDS011;34408;51.426;5.444;2023-05-06T05:49:29;3.83;;;2.00;;
48613;SDS011;34408;51.426;5.444;2023-05-06T05:51:56;4.22;;;2.33;;
48613;SDS011;34408;51.426;5.444;2023-05-06T05:54:24;4.20;;;2.17;;
48613;SDS011;34408;51.426;5.444;2023-05-06T05:56:52;2.97;;;1.88;;
48613;SDS011;34408;51.426;5.444;2023-05-06T05:59:21;3.53;;;2.35;;
48613;SDS011;34408;51.426;5.444;2023-05-06T06:01:49;2.92;;;1.90;;
48613;SDS011;34408;51.426;5.444;2023-05-06T06:04:17;4.80;;;2.35;;
48613;SDS011;34408;51.426;5.444;2023-05-06T06:06:44;4.72;;;2.05;;
48613;SDS011;34408;51.426;5.444;2023-05-06T06:09:12;3.60;;;2.30;;
48613;SDS011;34408;51.426;5.444;2023-05-06T06:11:41;5.53;;;2.72;;
48613;SDS011;34408;51.426;5.444;2023-05-06T06:14:09;5.10;;;2.53;;
48613;SDS011;34408;51.426;5.444;2023-05-06T06:16:38;4.60;;;2.70;;
48613;SDS011;34408;51.426;5.444;2023-05-06T06:19:06;4.00;;;2.38;;
48613;SDS011;34408;51.426;5.444;2023-05-06T06:21:34;4.57;;;2.83;;
48613;SDS011;34408;51.426;5.444;2023-05-06T06:24:02;7.15;;;3.75;;
48613;SDS011;34408;51.426;5.444;2023-05-06T06:26:30;8.32;;;4.38;;
48613;SDS011;34408;51.426;5.444;2023-05-06T06:28:58;11.68;;;5.15;;
48613;SDS011;34408;51.426;5.444;2023-05-06T06:31:26;10.32;;;5.55;;
48613;SDS011;34408;51.426;5.444;2023-05-06T06:33:55;8.57;;;4.40;;
48613;SDS011;34408;51.426;5.444;2023-05-06T06:36:23;9.95;;;5.00;;
48613;SDS011;34408;51.426;5.444;2023-05-06T06:38:51;8.43;;;5.22;;
48613;SDS011;34408;51.426;5.444;2023-05-06T06:41:19;10.35;;;4.90;;
48613;SDS011;34408;51.426;5.444;2023-05-06T06:43:46;9.88;;;4.90;;
48613;SDS011;34408;51.426;5.444;2023-05-06T06:46:14;8.45;;;4.18;;
48613;SDS011;34408;51.426;5.444;2023-05-06T06:48:42;13.60;;;4.95;;
48613;SDS011;34408;51.426;5.444;2023-05-06T06:51:11;8.80;;;5.43;;
48613;SDS011;34408;51.426;5.444;2023-05-06T06:53:39;10.88;;;4.40;;
48613;SDS011;34408;51.426;5.444;2023-05-06T06:56:07;7.38;;;4.38;;
48613;SDS011;34408;51.426;5.444;2023-05-06T06:58:37;8.10;;;3.80;;
48613;SDS011;34408;51.426;5.444;2023-05-06T07:01:04;8.45;;;3.53;;
48613;SDS011;34408;51.426;5.444;2023-05-06T07:03:32;7.28;;;3.42;;
48613;SDS011;34408;51.426;5.444;2023-05-06T07:06:00;7.32;;;3.65;;
48613;SDS011;34408;51.426;5.444;2023-05-06T07:08:29;7.10;;;3.63;;
48613;SDS011;34408;51.426;5.444;2023-05-06T07:10:57;8.20;;;4.03;;
48613;SDS011;34408;51.426;5.444;2023-05-06T07:13:24;10.45;;;3.58;;
48613;SDS011;34408;51.426;5.444;2023-05-06T07:15:52;6.20;;;3.30;;
48613;SDS011;34408;51.426;5.444;2023-05-06T07:18:20;6.93;;;3.05;;
48613;SDS011;34408;51.426;5.444;2023-05-06T07:20:48;7.32;;;4.25;;
48613;SDS011;34408;51.426;5.444;2023-05-06T07:23:15;7.28;;;3.20;;
48613;SDS011;34408;51.426;5.444;2023-05-06T07:25:44;7.53;;;3.60;;
48613;SDS011;34408;51.426;5.444;2023-05-06T07:28:12;6.07;;;3.28;;
48613;SDS011;34408;51.426;5.444;2023-05-06T07:30:40;6.30;;;2.80;;
48613;SDS011;34408;51.426;5.444;2023-05-06T07:33:09;5.80;;;2.85;;
48613;SDS011;34408;51.426;5.444;2023-05-06T07:35:36;5.65;;;3.10;;
48613;SDS011;34408;51.426;5.444;2023-05-06T07:38:04;8.15;;;2.65;;
48613;SDS011;34408;51.426;5.444;2023-05-06T07:40:32;4.93;;;2.50;;
48613;SDS011;34408;51.426;5.444;2023-05-06T07:43:01;8.63;;;3.20;;
48613;SDS011;34408;51.426;5.444;2023-05-06T07:45:29;6.30;;;3.15;;
48613;SDS011;34408;51.426;5.444;2023-05-06T07:47:57;8.27;;;3.08;;
48613;SDS011;34408;51.426;5.444;2023-05-06T07:50:25;4.63;;;2.60;;
48613;SDS011;34408;51.426;5.444;2023-05-06T07:52:53;5.63;;;2.72;;
48613;SDS011;34408;51.426;5.444;2023-05-06T07:55:20;6.88;;;3.25;;
48613;SDS011;34408;51.426;5.444;2023-05-06T07:57:48;10.10;;;3.53;;
48613;SDS011;34408;51.426;5.444;2023-05-06T08:00:17;10.80;;;3.35;;
48613;SDS011;34408;51.426;5.444;2023-05-06T08:02:45;6.30;;;2.97;;
48613;SDS011;34408;51.426;5.444;2023-05-06T08:05:13;6.00;;;2.80;;
48613;SDS011;34408;51.426;5.444;2023-05-06T08:07:42;15.02;;;5.82;;
48613;SDS011;34408;51.426;5.444;2023-05-06T08:10:10;8.15;;;3.50;;
48613;SDS011;34408;51.426;5.444;2023-05-06T08:12:38;8.07;;;4.05;;
48613;SDS011;34408;51.426;5.444;2023-05-06T08:15:06;8.85;;;3.05;;
48613;SDS011;34408;51.426;5.444;2023-05-06T08:17:36;8.82;;;3.05;;
48613;SDS011;34408;51.426;5.444;2023-05-06T08:20:05;6.72;;;4.00;;
48613;SDS011;34408;51.426;5.444;2023-05-06T08:22:33;6.13;;;3.03;;
48613;SDS011;34408;51.426;5.444;2023-05-06T08:25:01;5.57;;;3.08;;
48613;SDS011;34408;51.426;5.444;2023-05-06T08:27:29;6.65;;;2.80;;
48613;SDS011;34408;51.426;5.444;2023-05-06T08:29:56;4.82;;;2.30;;
48613;SDS011;34408;51.426;5.444;2023-05-06T08:32:24;6.32;;;2.92;;
48613;SDS011;34408;51.426;5.444;2023-05-06T08:34:53;5.40;;;3.00;;
48613;SDS011;34408;51.426;5.444;2023-05-06T08:37:21;6.63;;;3.03;;
48613;SDS011;34408;51.426;5.444;2023-05-06T08:39:49;9.52;;;3.75;;
48613;SDS011;34408;51.426;5.444;2023-05-06T08:42:16;5.65;;;2.90;;
48613;SDS011;34408;51.426;5.444;2023-05-06T08:44:44;8.45;;;3.00;;
48613;SDS011;34408;51.426;5.444;2023-05-06T08:47:12;6.18;;;2.60;;
48613;SDS011;34408;51.426;5.444;2023-05-06T08:49:40;7.93;;;3.50;;
48613;SDS011;34408;51.426;5.444;2023-05-06T08:52:09;4.65;;;2.60;;
48613;SDS011;34408;51.426;5.444;2023-05-06T08:54:37;6.38;;;2.25;;
48613;SDS011;34408;51.426;5.444;2023-05-06T08:57:08;5.63;;;2.83;;
48613;SDS011;34408;51.426;5.444;2023-05-06T08:59:38;9.35;;;2.40;;
48613;SDS011;34408;51.426;5.444;2023-05-06T09:02:07;4.72;;;2.15;;
48613;SDS011;34408;51.426;5.444;2023-05-06T09:04:36;6.70;;;2.38;;
48613;SDS011;34408;51.426;5.444;2023-05-06T09:07:04;3.40;;;1.98;;
48613;SDS011;34408;51.426;5.444;2023-05-06T09:09:33;5.32;;;2.22;;
48613;SDS011;34408;51.426;5.444;2023-05-06T09:12:02;4.13;;;1.98;;
48613;SDS011;34408;51.426;5.444;2023-05-06T09:14:31;5.15;;;2.70;;
48613;SDS011;34408;51.426;5.444;2023-05-06T09:16:58;5.88;;;2.45;;
48613;SDS011;34408;51.426;5.444;2023-05-06T09:19:26;3.38;;;1.70;;
48613;SDS011;34408;51.426;5.444;2023-05-06T09:21:54;5.13;;;2.30;;
48613;SDS011;34408;51.426;5.444;2023-05-06T09:24:22;5.57;;;1.83;;
48613;SDS011;34408;51.426;5.444;2023-05-06T09:26:52;4.07;;;1.85;;
48613;SDS011;34408;51.426;5.444;2023-05-06T09:29:20;6.90;;;1.98;;
48613;SDS011;34408;51.426;5.444;2023-05-06T09:31:48;4.10;;;1.67;;
48613;SDS011;34408;51.426;5.444;2023-05-06T09:34:17;4.35;;;2.22;;
48613;SDS011;34408;51.426;5.444;2023-05-06T09:36:46;6.38;;;1.75;;
48613;SDS011;34408;51.426;5.444;2023-05-06T09:39:14;3.50;;;1.63;;
48613;SDS011;34408;51.426;5.444;2023-05-06T09:41:41;6.20;;;2.35;;
48613;SDS011;34408;51.426;5.444;2023-05-06T09:44:11;3.92;;;1.70;;
48613;SDS011;34408;51.426;5.444;2023-05-06T09:46:39;3.72;;;1.55;;
48613;SDS011;34408;51.426;5.444;2023-05-06T09:49:07;4.53;;;1.80;;
48613;SDS011;34408;51.426;5.444;2023-05-06T09:51:35;6.53;;;1.67;;
48613;SDS011;34408;51.426;5.444;2023-05-06T09:54:03;2.92;;;1.45;;
48613;SDS011;34408;51.426;5.444;2023-05-06T09:56:32;1.92;;;1.40;;
48613;SDS011;34408;51.426;5.444;2023-05-06T09:59:00;2.88;;;1.50;;
48613;SDS011;34408;51.426;5.444;2023-05-06T10:01:31;2.58;;;1.58;;
48613;SDS011;34408;51.426;5.444;2023-05-06T10:04:04;3.83;;;1.30;;
48613;SDS011;34408;51.426;5.444;2023-05-06T10:06:35;4.15;;;1.70;;
48613;SDS011;34408;51.426;5.444;2023-05-06T10:09:06;3.17;;;1.15;;
48613;SDS011;34408;51.426;5.444;2023-05-06T10:11:35;4.75;;;1.58;;
48613;SDS011;34408;51.426;5.444;2023-05-06T10:14:03;3.38;;;1.75;;
48613;SDS011;34408;51.426;5.444;2023-05-06T10:16:34;3.60;;;1.20;;
48613;SDS011;34408;51.426;5.444;2023-05-06T10:19:05;4.57;;;1.58;;
48613;SDS011;34408;51.426;5.444;2023-05-06T10:21:35;3.38;;;1.27;;
48613;SDS011;34408;51.426;5.444;2023-05-06T10:24:07;2.65;;;1.50;;
48613;SDS011;34408;51.426;5.444;2023-05-06T10:26:37;2.83;;;1.17;;
48613;SDS011;34408;51.426;5.444;2023-05-06T10:29:07;1.70;;;1.20;;
48613;SDS011;34408;51.426;5.444;2023-05-06T10:31:39;3.33;;;1.63;;
48613;SDS011;34408;51.426;5.444;2023-05-06T10:34:12;3.08;;;1.70;;
48613;SDS011;34408;51.426;5.444;2023-05-06T10:36:43;2.03;;;0.93;;
48613;SDS011;34408;51.426;5.444;2023-05-06T10:39:12;2.95;;;1.17;;
48613;SDS011;34408;51.426;5.444;2023-05-06T10:41:40;2.28;;;1.23;;
48613;SDS011;34408;51.426;5.444;2023-05-06T10:44:08;3.58;;;1.38;;
48613;SDS011;34408;51.426;5.444;2023-05-06T10:49:25;1.70;;;0.93;;
48613;SDS011;34408;51.426;5.444;2023-05-06T10:54:49;1.90;;;1.25;;
48613;SDS011;34408;51.426;5.444;2023-05-06T10:57:17;2.72;;;1.10;;
48613;SDS011;34408;51.426;5.444;2023-05-06T10:59:57;3.80;;;1.23;;
48613;SDS011;34408;51.426;5.444;2023-05-06T11:02:26;1.67;;;0.80;;
48613;SDS011;34408;51.426;5.444;2023-05-06T11:04:58;3.22;;;1.38;;
48613;SDS011;34408;51.426;5.444;2023-05-06T11:07:27;3.15;;;1.15;;
48613;SDS011;34408;51.426;5.444;2023-05-06T11:09:55;3.33;;;1.25;;
48613;SDS011;34408;51.426;5.444;2023-05-06T11:12:43;4.85;;;0.80;;
48613;SDS011;34408;51.426;5.444;2023-05-06T11:15:25;2.10;;;1.05;;
48613;SDS011;34408;51.426;5.444;2023-05-06T11:24:05;3.03;;;1.08;;
48613;SDS011;34408;51.426;5.444;2023-05-06T11:26:40;2.30;;;1.60;;
48613;SDS011;34408;51.426;5.444;2023-05-06T11:29:09;1.75;;;0.93;;
48613;SDS011;34408;51.426;5.444;2023-05-06T11:31:38;2.70;;;1.25;;
48613;SDS011;34408;51.426;5.444;2023-05-06T11:34:09;3.10;;;1.50;;
48613;SDS011;34408;51.426;5.444;2023-05-06T11:36:51;2.25;;;1.30;;
48613;SDS011;34408;51.426;5.444;2023-05-06T11:39:21;2.42;;;1.17;;
48613;SDS011;34408;51.426;5.444;2023-05-06T11:41:51;2.38;;;1.10;;
48613;SDS011;34408;51.426;5.444;2023-05-06T11:44:22;1.75;;;1.00;;
48613;SDS011;34408;51.426;5.444;2023-05-06T11:46:54;2.97;;;1.00;;
48613;SDS011;34408;51.426;5.444;2023-05-06T11:49:24;3.60;;;0.95;;
48613;SDS011;34408;51.426;5.444;2023-05-06T11:51:53;3.05;;;0.90;;
48613;SDS011;34408;51.426;5.444;2023-05-06T11:54:23;1.95;;;1.02;;
48613;SDS011;34408;51.426;5.444;2023-05-06T11:56:53;4.25;;;1.20;;
48613;SDS011;34408;51.426;5.444;2023-05-06T11:59:26;2.75;;;1.13;;
48613;SDS011;34408;51.426;5.444;2023-05-06T12:01:56;1.58;;;0.80;;
48613;SDS011;34408;51.426;5.444;2023-05-06T12:04:26;1.77;;;1.00;;
48613;SDS011;34408;51.426;5.444;2023-05-06T12:06:54;2.78;;;1.20;;
48613;SDS011;34408;51.426;5.444;2023-05-06T12:09:23;3.65;;;1.40;;
48613;SDS011;34408;51.426;5.444;2023-05-06T12:11:51;2.63;;;0.70;;
48613;SDS011;34408;51.426;5.444;2023-05-06T12:14:20;3.58;;;1.33;;
48613;SDS011;34408;51.426;5.444;2023-05-06T12:16:48;2.47;;;1.00;;
48613;SDS011;34408;51.426;5.444;2023-05-06T12:19:16;2.67;;;1.05;;
48613;SDS011;34408;51.426;5.444;2023-05-06T12:21:45;3.08;;;1.08;;
48613;SDS011;34408;51.426;5.444;2023-05-06T12:24:13;4.55;;;1.20;;
48613;SDS011;34408;51.426;5.444;2023-05-06T12:26:41;1.38;;;0.90;;
48613;SDS011;34408;51.426;5.444;2023-05-06T12:29:12;1.30;;;0.80;;
48613;SDS011;34408;51.426;5.444;2023-05-06T12:31:42;3.60;;;1.00;;
48613;SDS011;34408;51.426;5.444;2023-05-06T12:34:12;1.85;;;0.98;;
48613;SDS011;34408;51.426;5.444;2023-05-06T12:36:41;2.83;;;0.95;;
48613;SDS011;34408;51.426;5.444;2023-05-06T12:39:12;5.05;;;1.10;;
48613;SDS011;34408;51.426;5.444;2023-05-06T12:41:43;1.92;;;1.08;;
48613;SDS011;34408;51.426;5.444;2023-05-06T12:46:59;4.32;;;1.30;;
48613;SDS011;34408;51.426;5.444;2023-05-06T12:49:42;5.18;;;1.27;;
48613;SDS011;34408;51.426;5.444;2023-05-06T12:52:13;3.88;;;1.50;;
48613;SDS011;34408;51.426;5.444;2023-05-06T12:54:43;2.22;;;1.00;;
48613;SDS011;34408;51.426;5.444;2023-05-06T12:57:11;5.18;;;1.50;;
48613;SDS011;34408;51.426;5.444;2023-05-06T12:59:39;5.90;;;1.50;;
48613;SDS011;34408;51.426;5.444;2023-05-06T13:02:09;3.20;;;1.00;;
48613;SDS011;34408;51.426;5.444;2023-05-06T13:04:37;4.53;;;1.15;;
48613;SDS011;34408;51.426;5.444;2023-05-06T13:07:05;2.92;;;0.85;;
48613;SDS011;34408;51.426;5.444;2023-05-06T13:09:32;3.33;;;1.00;;
48613;SDS011;34408;51.426;5.444;2023-05-06T13:12:02;1.15;;;0.85;;
48613;SDS011;34408;51.426;5.444;2023-05-06T13:14:30;4.13;;;1.10;;
48613;SDS011;34408;51.426;5.444;2023-05-06T13:16:58;1.63;;;0.93;;
48613;SDS011;34408;51.426;5.444;2023-05-06T13:19:29;7.03;;;1.15;;
48613;SDS011;34408;51.426;5.444;2023-05-06T13:21:59;2.78;;;1.35;;
48613;SDS011;34408;51.426;5.444;2023-05-06T13:24:27;5.85;;;1.23;;
48613;SDS011;34408;51.426;5.444;2023-05-06T13:26:55;7.50;;;1.02;;
48613;SDS011;34408;51.426;5.444;2023-05-06T13:29:26;3.85;;;1.77;;
48613;SDS011;34408;51.426;5.444;2023-05-06T13:31:54;5.35;;;1.23;;
48613;SDS011;34408;51.426;5.444;2023-05-06T13:34:23;5.40;;;1.45;;
48613;SDS011;34408;51.426;5.444;2023-05-06T13:36:51;3.60;;;1.27;;
48613;SDS011;34408;51.426;5.444;2023-05-06T13:39:19;3.60;;;1.10;;
48613;SDS011;34408;51.426;5.444;2023-05-06T13:41:47;2.88;;;1.08;;
48613;SDS011;34408;51.426;5.444;2023-05-06T13:44:16;2.92;;;1.30;;
48613;SDS011;34408;51.426;5.444;2023-05-06T13:46:45;2.28;;;0.98;;
48613;SDS011;34408;51.426;5.444;2023-05-06T13:49:13;2.90;;;0.80;;
48613;SDS011;34408;51.426;5.444;2023-05-06T13:51:41;3.72;;;1.02;;
48613;SDS011;34408;51.426;5.444;2023-05-06T13:54:09;1.65;;;0.73;;
48613;SDS011;34408;51.426;5.444;2023-05-06T13:56:36;3.05;;;1.30;;
48613;SDS011;34408;51.426;5.444;2023-05-06T13:59:04;2.80;;;0.90;;
48613;SDS011;34408;51.426;5.444;2023-05-06T14:01:34;1.80;;;0.88;;
48613;SDS011;34408;51.426;5.444;2023-05-06T14:04:03;4.30;;;0.82;;
48613;SDS011;34408;51.426;5.444;2023-05-06T14:06:31;3.30;;;1.27;;
48613;SDS011;34408;51.426;5.444;2023-05-06T14:08:58;2.25;;;0.90;;
48613;SDS011;34408;51.426;5.444;2023-05-06T14:11:26;2.72;;;1.08;;
48613;SDS011;34408;51.426;5.444;2023-05-06T14:13:54;2.72;;;1.10;;
48613;SDS011;34408;51.426;5.444;2023-05-06T14:16:22;1.98;;;1.00;;
48613;SDS011;34408;51.426;5.444;2023-05-06T14:18:50;5.90;;;1.00;;
48613;SDS011;34408;51.426;5.444;2023-05-06T14:21:20;5.45;;;1.63;;
48613;SDS011;34408;51.426;5.444;2023-05-06T14:23:48;2.88;;;1.10;;
48613;SDS011;34408;51.426;5.444;2023-05-06T14:26:16;3.63;;;1.15;;
48613;SDS011;34408;51.426;5.444;2023-05-06T14:28:43;2.25;;;1.10;;
48613;SDS011;34408;51.426;5.444;2023-05-06T14:31:11;5.32;;;1.27;;
48613;SDS011;34408;51.426;5.444;2023-05-06T14:33:39;3.47;;;1.20;;
48613;SDS011;34408;51.426;5.444;2023-05-06T14:36:07;2.95;;;1.30;;
48613;SDS011;34408;51.426;5.444;2023-05-06T14:38:36;3.53;;;1.33;;
48613;SDS011;34408;51.426;5.444;2023-05-06T14:41:04;2.53;;;1.00;;
48613;SDS011;34408;51.426;5.444;2023-05-06T14:43:31;0.80;;;0.68;;
48613;SDS011;34408;51.426;5.444;2023-05-06T14:45:59;2.83;;;1.02;;
48613;SDS011;34408;51.426;5.444;2023-05-06T14:48:27;4.78;;;1.10;;
48613;SDS011;34408;51.426;5.444;2023-05-06T14:50:55;2.63;;;1.00;;
48613;SDS011;34408;51.426;5.444;2023-05-06T14:53:22;2.28;;;1.05;;
48613;SDS011;34408;51.426;5.444;2023-05-06T14:55:51;3.33;;;0.82;;
48613;SDS011;34408;51.426;5.444;2023-05-06T14:58:21;2.22;;;1.08;;
48613;SDS011;34408;51.426;5.444;2023-05-06T15:00:49;4.75;;;1.00;;
48613;SDS011;34408;51.426;5.444;2023-05-06T15:03:17;3.95;;;1.15;;
48613;SDS011;34408;51.426;5.444;2023-05-06T15:05:44;1.45;;;0.70;;
48613;SDS011;34408;51.426;5.444;2023-05-06T15:08:12;3.38;;;1.10;;
48613;SDS011;34408;51.426;5.444;2023-05-06T15:10:40;6.78;;;1.10;;
48613;SDS011;34408;51.426;5.444;2023-05-06T15:13:09;3.40;;;1.02;;
48613;SDS011;34408;51.426;5.444;2023-05-06T15:15:37;1.65;;;0.80;;